createdAt,value
2023-03-20T00:00:31.814Z,4.34
2023-03-20T00:03:24.424Z,4.30
2023-03-20T00:06:23.149Z,4.26
2023-03-20T00:09:15.035Z,4.22
2023-03-20T00:12:07.748Z,4.20
2023-03-20T00:15:03.054Z,4.22
2023-03-20T00:17:56.100Z,4.26
2023-03-20T00:20:49.471Z,4.31
2023-03-20T00:23:42.619Z,4.34
2023-03-20T00:26:36.849Z,4.37
2023-03-20T00:29:31.243Z,4.40
2023-03-20T00:32:23.489Z,4.43
2023-03-20T00:35:23.163Z,4.43
2023-03-20T00:38:15.611Z,4.46
2023-03-20T00:41:23.752Z,4.53
2023-03-20T00:44:33.624Z,4.60
2023-03-20T00:47:28.611Z,4.66
2023-03-20T00:50:26.123Z,4.72
2023-03-20T00:53:18.070Z,4.77
2023-03-20T00:56:49.198Z,4.78
2023-03-20T00:59:48.946Z,4.71
2023-03-20T01:02:41.533Z,4.62
2023-03-20T01:05:34.072Z,4.55
2023-03-20T01:08:26.814Z,4.49
2023-03-20T01:11:24.072Z,4.44
2023-03-20T01:14:16.743Z,4.38
2023-03-20T01:17:20.120Z,4.32
2023-03-20T01:20:31.139Z,4.28
2023-03-20T01:23:23.523Z,4.24
2023-03-20T01:26:30.414Z,4.20
2023-03-20T01:29:25.094Z,4.17
2023-03-20T01:32:19.957Z,4.14
2023-03-20T01:35:16.800Z,4.14
2023-03-20T01:38:22.193Z,4.15
2023-03-20T01:41:18.122Z,4.15
2023-03-20T01:44:22.383Z,4.16
2023-03-20T01:47:18.568Z,4.18
2023-03-20T01:50:23.157Z,4.20
2023-03-20T01:53:22.621Z,4.22
2023-03-20T01:56:21.386Z,4.25
2023-03-20T01:59:37.475Z,4.29
2023-03-20T02:02:31.506Z,4.36
2023-03-20T02:05:23.815Z,4.44
2023-03-20T02:08:34.914Z,4.48
2023-03-20T02:11:27.948Z,4.55
2023-03-20T02:14:22.352Z,4.63
2023-03-20T02:17:25.493Z,4.68
2023-03-20T02:20:54.618Z,4.74
2023-03-20T02:24:05.147Z,4.83
2023-03-20T02:27:09.280Z,4.95
2023-03-20T02:30:17.708Z,5.01
2023-03-20T02:33:30.680Z,5.01
2023-03-20T02:36:26.080Z,4.97
2023-03-20T02:39:26.889Z,4.93
2023-03-20T02:42:33.918Z,4.89
2023-03-20T02:45:31.257Z,4.86
2023-03-20T02:49:03.429Z,4.88
2023-03-20T02:52:06.932Z,4.94
2023-03-20T02:55:34.709Z,4.97
2023-03-20T02:58:46.416Z,4.99
2023-03-20T03:02:28.799Z,5.03
2023-03-20T03:05:01.171Z,5.06
2023-03-20T03:07:33.447Z,5.09
2023-03-20T03:10:29.025Z,5.12
2023-03-20T03:13:00.010Z,5.19
2023-03-20T03:15:38.916Z,5.24
2023-03-20T03:18:12.791Z,5.25
2023-03-20T03:20:43.463Z,5.26
2023-03-20T03:23:54.679Z,5.25
2023-03-20T03:26:29.198Z,5.23
2023-03-20T03:29:02.172Z,5.21
2023-03-20T03:31:32.956Z,5.19
2023-03-20T03:34:01.542Z,5.17
2023-03-20T03:36:57.127Z,5.16
2023-03-20T03:39:36.835Z,5.14
2023-03-20T03:42:19.700Z,5.14
2023-03-20T03:45:04.567Z,5.14
2023-03-20T03:47:39.697Z,5.13
2023-03-20T03:50:18.189Z,5.11
2023-03-20T03:52:49.538Z,5.09
2023-03-20T03:55:22.959Z,5.03
2023-03-20T03:58:10.220Z,5.00
2023-03-20T04:00:42.843Z,4.95
2023-03-20T04:03:12.752Z,4.90
2023-03-20T04:05:44.699Z,4.85
2023-03-20T04:08:16.396Z,4.80
2023-03-20T04:10:44.541Z,4.75
2023-03-20T04:13:12.625Z,4.69
2023-03-20T04:15:40.621Z,4.64
2023-03-20T04:18:18.084Z,4.59
2023-03-20T04:20:48.124Z,4.54
2023-03-20T04:23:17.978Z,4.51
2023-03-20T04:25:45.930Z,4.49
2023-03-20T04:28:16.461Z,4.48
2023-03-20T04:31:00.471Z,4.47
2023-03-20T04:34:07.262Z,4.46
2023-03-20T04:36:38.176Z,4.48
2023-03-20T04:39:08.637Z,4.49
2023-03-20T04:41:36.680Z,4.50
2023-03-20T04:44:04.930Z,4.52
2023-03-20T04:46:33.887Z,4.56
2023-03-20T04:49:03.534Z,4.61
2023-03-20T04:51:31.785Z,4.65
2023-03-20T04:53:59.970Z,4.67
2023-03-20T04:56:28.110Z,4.69
2023-03-20T04:59:08.947Z,4.70
2023-03-20T05:01:37.428Z,4.71
2023-03-20T05:04:06.271Z,4.73
2023-03-20T05:06:35.462Z,4.76
2023-03-20T05:09:04.196Z,4.78
2023-03-20T05:11:33.483Z,4.81
2023-03-20T05:14:07.439Z,4.84
2023-03-20T05:16:56.439Z,4.87
2023-03-20T05:19:40.887Z,4.92
2023-03-20T05:22:08.976Z,4.96
2023-03-20T05:24:53.116Z,5.01
2023-03-20T05:27:46.520Z,5.07
2023-03-20T05:30:47.059Z,5.12
2023-03-20T05:33:41.634Z,5.18
2023-03-20T05:36:18.712Z,5.23
2023-03-20T05:38:57.953Z,5.29
2023-03-20T05:41:45.972Z,5.35
2023-03-20T05:44:32.866Z,5.41
2023-03-20T05:47:19.717Z,5.49
2023-03-20T05:49:59.854Z,5.57
2023-03-20T05:52:48.578Z,5.67
2023-03-20T05:55:28.677Z,5.80
2023-03-20T05:58:06.365Z,5.91
2023-03-20T06:01:02.292Z,6.05
2023-03-20T06:03:53.438Z,6.19
2023-03-20T06:06:58.634Z,6.34
2023-03-20T06:09:50.847Z,6.47
2023-03-20T06:12:42.752Z,6.58
2023-03-20T06:15:35.036Z,6.69
2023-03-20T06:18:36.057Z,6.79
2023-03-20T06:21:28.926Z,6.90
2023-03-20T06:24:20.814Z,6.94
2023-03-20T06:27:14.394Z,6.93
2023-03-20T06:30:08.774Z,6.94
2023-03-20T06:33:01.496Z,6.95
2023-03-20T06:36:00.538Z,6.90
2023-03-20T06:38:57.703Z,6.89
2023-03-20T06:41:50.843Z,6.88
2023-03-20T06:44:44.093Z,6.89
2023-03-20T06:47:36.725Z,6.94
2023-03-20T06:50:28.405Z,7.01
2023-03-20T06:53:20.357Z,7.12
2023-03-20T06:56:33.091Z,7.24
2023-03-20T06:59:27.144Z,7.32
2023-03-20T07:02:22.862Z,7.39
2023-03-20T07:05:15.976Z,7.44
2023-03-20T07:08:09.186Z,7.48
2023-03-20T07:11:02.418Z,7.54
2023-03-20T07:13:54.785Z,7.62
2023-03-20T07:16:56.478Z,7.70
2023-03-20T07:19:48.618Z,7.81
2023-03-20T07:22:41.709Z,7.93
2023-03-20T07:25:48.955Z,8.07
2023-03-20T07:28:41.680Z,8.23
2023-03-20T07:31:39.040Z,8.32
2023-03-20T07:34:38.042Z,8.47
2023-03-20T07:37:30.796Z,8.65
2023-03-20T07:40:27.150Z,8.88
2023-03-20T07:43:21.921Z,9.10
2023-03-20T07:46:23.731Z,9.24
2023-03-20T07:49:19.902Z,9.34
2023-03-20T07:52:11.664Z,9.43
2023-03-20T07:55:03.939Z,9.61
2023-03-20T07:57:56.664Z,9.86
2023-03-20T08:00:48.748Z,9.97
2023-03-20T08:03:40.683Z,9.99
2023-03-20T08:06:32.692Z,9.98
2023-03-20T08:09:24.935Z,10.01
2023-03-20T08:12:17.189Z,10.08
2023-03-20T08:15:41.837Z,10.24
2023-03-20T08:18:33.547Z,10.52
2023-03-20T08:21:25.673Z,10.77
2023-03-20T08:24:18.402Z,11.05
2023-03-20T08:27:11.661Z,11.25
2023-03-20T08:30:04.568Z,11.32
2023-03-20T08:32:58.425Z,11.46
2023-03-20T08:36:00.910Z,11.67
2023-03-20T08:38:56.179Z,11.92
2023-03-20T08:41:55.182Z,12.10
2023-03-20T08:45:23.937Z,12.23
2023-03-20T08:48:16.660Z,12.44
2023-03-20T08:52:09.290Z,12.64
2023-03-20T08:55:16.537Z,12.79
2023-03-20T08:58:08.499Z,12.85
2023-03-20T09:01:09.214Z,12.85
2023-03-20T09:04:01.723Z,12.87
2023-03-20T09:06:53.721Z,12.92
2023-03-20T09:09:47.988Z,12.97
2023-03-20T09:12:40.916Z,12.95
2023-03-20T09:15:33.374Z,12.90
2023-03-20T09:18:26.796Z,12.96
2023-03-20T09:21:19.682Z,13.06
2023-03-20T09:30:00.843Z,13.35
2023-03-20T09:32:54.036Z,13.56
2023-03-20T09:35:46.176Z,13.70
2023-03-20T09:38:41.935Z,13.81
2023-03-20T09:41:49.145Z,13.90
2023-03-20T09:45:16.588Z,14.05
2023-03-20T09:48:24.549Z,14.28
2023-03-20T09:51:38.766Z,14.51
2023-03-20T09:54:54.076Z,14.73
2023-03-20T09:57:52.625Z,14.90
2023-03-20T10:01:07.492Z,15.03
2023-03-20T10:04:17.174Z,15.12
2023-03-20T10:08:09.902Z,15.30
2023-03-20T10:13:00.695Z,15.52
2023-03-20T10:17:25.293Z,15.69
2023-03-20T10:21:46.139Z,15.89
2023-03-20T10:26:23.358Z,16.14
2023-03-20T10:31:04.157Z,16.23
2023-03-20T10:35:41.381Z,16.25
2023-03-20T10:40:32.822Z,16.37
2023-03-20T10:45:14.584Z,16.47
2023-03-20T10:49:38.324Z,16.58
2023-03-20T10:53:34.771Z,16.72
2023-03-20T10:57:47.585Z,16.79
2023-03-20T11:02:21.061Z,16.82
2023-03-20T11:06:35.153Z,16.91
2023-03-20T11:10:05.212Z,16.95
2023-03-20T11:13:14.307Z,16.99
2023-03-20T11:16:12.169Z,17.00
2023-03-20T11:19:12.847Z,17.03
2023-03-20T11:22:23.822Z,17.00
2023-03-20T11:25:34.051Z,17.03
2023-03-20T11:28:41.869Z,17.13
2023-03-20T11:31:37.346Z,17.10
2023-03-20T11:34:41.139Z,17.10
2023-03-20T11:37:36.011Z,17.19
2023-03-20T11:40:33.710Z,17.23
2023-03-20T11:43:27.603Z,17.31
2023-03-20T11:46:23.289Z,17.40
2023-03-20T11:49:24.906Z,17.43
2023-03-20T11:52:22.109Z,17.44
2023-03-20T11:55:55.085Z,17.32
2023-03-20T11:59:08.773Z,17.29
2023-03-20T12:02:05.540Z,17.37
2023-03-20T12:05:00.960Z,17.43
2023-03-20T12:07:58.226Z,17.51
2023-03-20T12:11:08.120Z,17.66
2023-03-20T12:14:03.533Z,17.79
2023-03-20T12:17:11.590Z,17.97
2023-03-20T12:20:31.704Z,17.88
2023-03-20T12:23:39.271Z,17.78
2023-03-20T12:26:50.831Z,17.61
2023-03-20T12:29:58.423Z,17.60
2023-03-20T12:33:04.834Z,17.82
2023-03-20T12:35:58.953Z,18.05
2023-03-20T12:38:50.624Z,18.14
2023-03-20T12:42:10.585Z,18.18
2023-03-20T12:45:26.268Z,18.19
2023-03-20T12:48:56.110Z,18.05
2023-03-20T12:51:58.164Z,18.12
2023-03-20T12:55:39.079Z,18.24
2023-03-20T12:59:01.945Z,18.40
2023-03-20T13:01:59.436Z,18.48
2023-03-20T13:05:27.076Z,18.61
2023-03-20T13:08:22.472Z,18.69
2023-03-20T13:11:14.953Z,18.76
2023-03-20T13:14:46.304Z,18.79
2023-03-20T13:17:59.249Z,18.83
2023-03-20T13:21:00.286Z,18.76
2023-03-20T13:24:07.006Z,18.64
2023-03-20T13:27:11.348Z,18.64
2023-03-20T13:30:27.032Z,18.63
2023-03-20T13:33:21.462Z,18.61
2023-03-20T13:36:25.697Z,18.66
2023-03-20T13:39:27.316Z,18.77
2023-03-20T13:42:24.082Z,18.93
2023-03-20T13:45:35.728Z,18.97
2023-03-20T13:48:31.396Z,18.98
2023-03-20T13:51:29.986Z,19.04
2023-03-20T13:54:51.360Z,19.04
2023-03-20T13:57:46.169Z,19.00
2023-03-20T14:00:55.592Z,18.93
2023-03-20T14:03:49.948Z,18.79
2023-03-20T14:06:49.940Z,18.59
2023-03-20T14:09:41.525Z,18.41
2023-03-20T14:12:34.136Z,18.33
2023-03-20T14:15:34.530Z,18.29
2023-03-20T14:18:27.589Z,18.23
2023-03-20T14:21:24.266Z,18.17
2023-03-20T14:24:18.738Z,18.11
2023-03-20T14:27:29.817Z,18.08
2023-03-20T14:30:32.064Z,18.07
2023-03-20T14:33:26.933Z,18.04
2023-03-20T14:36:21.935Z,18.03
2023-03-20T14:39:43.573Z,18.05
2023-03-20T14:42:47.076Z,18.02
2023-03-20T14:45:45.434Z,17.88
2023-03-20T14:48:45.095Z,17.73
2023-03-20T14:51:44.788Z,17.56
2023-03-20T14:54:41.543Z,17.40
2023-03-20T14:57:52.877Z,17.25
2023-03-20T15:00:47.430Z,17.09
2023-03-20T15:03:41.188Z,16.95
2023-03-20T15:06:35.401Z,16.84
2023-03-20T15:09:31.129Z,16.74
2023-03-20T15:12:36.364Z,16.66
2023-03-20T15:15:31.562Z,16.54
2023-03-20T15:18:27.809Z,16.41
2023-03-20T15:21:38.904Z,16.29
2023-03-20T15:24:30.789Z,16.16
2023-03-20T15:27:26.295Z,16.04
2023-03-20T15:30:22.932Z,15.94
2023-03-20T15:33:41.935Z,15.82
2023-03-20T15:36:37.263Z,15.70
2023-03-20T15:39:36.961Z,15.58
2023-03-20T15:42:31.848Z,15.45
2023-03-20T15:45:38.193Z,15.32
2023-03-20T15:48:31.167Z,15.14
2023-03-20T15:51:27.746Z,15.01
2023-03-20T15:54:20.970Z,14.85
2023-03-20T15:57:30.585Z,14.69
2023-03-20T16:00:23.062Z,14.59
2023-03-20T16:03:19.326Z,14.50
2023-03-20T16:06:15.363Z,14.43
2023-03-20T16:09:08.417Z,14.35
2023-03-20T16:12:02.781Z,14.30
2023-03-20T16:14:56.150Z,14.24
2023-03-20T16:17:51.492Z,14.17
2023-03-20T16:20:58.444Z,14.09
2023-03-20T16:23:53.650Z,14.02
2023-03-20T16:26:49.704Z,13.96
2023-03-20T16:29:43.958Z,13.89
2023-03-20T16:32:39.756Z,13.83
2023-03-20T16:35:43.758Z,13.77
2023-03-20T16:38:37.311Z,13.71
2023-03-20T16:41:37.394Z,13.63
2023-03-20T16:44:34.178Z,13.58
2023-03-20T16:47:45.983Z,13.53
2023-03-20T16:50:40.491Z,13.49
2023-03-20T16:53:40.429Z,13.44
2023-03-20T16:56:38.452Z,13.39
2023-03-20T16:59:30.338Z,13.36
2023-03-20T17:02:25.664Z,13.35
2023-03-20T17:05:20.268Z,13.33
2023-03-20T17:08:15.171Z,13.32
2023-03-20T17:11:17.650Z,13.31
2023-03-20T17:14:10.182Z,13.30
2023-03-20T17:17:02.253Z,13.30
2023-03-20T17:19:54.669Z,13.29
2023-03-20T17:22:48.230Z,13.29
2023-03-20T17:25:40.408Z,13.30
2023-03-20T17:28:37.218Z,13.32
2023-03-20T17:31:29.593Z,13.35
2023-03-20T17:34:22.421Z,13.37
2023-03-20T17:37:29.460Z,13.38
2023-03-20T17:40:23.096Z,13.36
2023-03-20T17:43:16.331Z,13.34
2023-03-20T17:46:17.275Z,13.33
2023-03-20T17:49:16.354Z,13.30
2023-03-20T17:52:16.353Z,13.25
2023-03-20T17:55:09.058Z,13.21
2023-03-20T17:58:01.302Z,13.19
2023-03-20T18:00:54.781Z,13.18
2023-03-20T18:03:46.890Z,13.17
2023-03-20T18:06:39.480Z,13.17
2023-03-20T18:09:31.266Z,13.18
2023-03-20T18:12:23.829Z,13.17
2023-03-20T18:15:16.356Z,13.15
2023-03-20T18:18:08.827Z,13.10
2023-03-20T18:21:01.161Z,13.02
2023-03-20T18:23:53.786Z,12.94
2023-03-20T18:26:46.484Z,12.89
2023-03-20T18:29:37.932Z,12.85
2023-03-20T18:32:30.408Z,12.82
2023-03-20T18:35:22.532Z,12.80
2023-03-20T18:38:14.614Z,12.77
2023-03-20T18:41:07.275Z,12.75
2023-03-20T18:43:59.924Z,12.72
2023-03-20T18:46:52.294Z,12.71
2023-03-20T18:49:44.238Z,12.70
2023-03-20T18:52:36.341Z,12.69
2023-03-20T18:55:30.076Z,12.69
2023-03-20T18:58:24.672Z,12.69
2023-03-20T19:01:17.471Z,12.70
2023-03-20T19:04:09.555Z,12.69
2023-03-20T19:07:02.142Z,12.68
2023-03-20T19:09:54.098Z,12.68
2023-03-20T19:12:46.974Z,12.68
2023-03-20T19:15:39.459Z,12.67
2023-03-20T19:18:30.814Z,12.67
2023-03-20T19:21:26.625Z,12.66
2023-03-20T19:24:21.661Z,12.65
2023-03-20T19:27:17.489Z,12.64
2023-03-20T19:30:43.184Z,12.63
2023-03-20T19:33:35.551Z,12.62
2023-03-20T19:36:33.452Z,12.61
2023-03-20T19:39:25.299Z,12.59
2023-03-20T19:42:47.480Z,12.56
2023-03-20T19:45:32.484Z,12.53
2023-03-20T19:48:27.580Z,12.50
2023-03-20T19:51:27.333Z,12.47
2023-03-20T19:54:19.380Z,12.43
2023-03-20T19:57:11.215Z,12.39
2023-03-20T20:03:21.775Z,12.28
2023-03-20T20:06:14.730Z,12.23
2023-03-20T20:09:06.899Z,12.18
2023-03-20T20:11:59.257Z,12.15
2023-03-20T20:14:51.242Z,12.12
2023-03-20T20:17:44.746Z,12.10
2023-03-20T20:21:11.179Z,12.09
2023-03-20T20:23:49.164Z,12.08
2023-03-20T20:26:53.403Z,12.08
2023-03-20T20:29:49.284Z,12.06
2023-03-20T20:32:42.079Z,12.04
2023-03-20T20:35:51.482Z,12.00
2023-03-20T20:38:51.181Z,11.92
2023-03-20T20:41:43.943Z,11.85
2023-03-20T20:44:36.342Z,11.79
2023-03-20T20:47:28.080Z,11.72
2023-03-20T20:50:24.038Z,11.66
2023-03-20T20:53:16.361Z,11.62
2023-03-20T20:56:08.365Z,11.57
2023-03-20T20:59:00.791Z,11.53
2023-03-20T21:01:53.969Z,11.48
2023-03-20T21:04:46.677Z,11.46
2023-03-20T21:07:42.323Z,11.44
2023-03-20T21:10:34.041Z,11.41
2023-03-20T21:13:27.088Z,11.38
2023-03-20T21:16:19.397Z,11.36
2023-03-20T21:19:11.701Z,11.34
2023-03-20T21:22:04.495Z,11.33
2023-03-20T21:25:13.058Z,11.32
2023-03-20T21:28:06.880Z,11.29
2023-03-20T21:31:24.825Z,11.27
2023-03-20T21:34:12.994Z,11.23
2023-03-20T21:38:06.901Z,11.20
2023-03-20T21:40:18.394Z,11.18
2023-03-20T21:43:12.363Z,11.15
2023-03-20T21:46:42.280Z,11.11
2023-03-20T21:49:58.806Z,11.09
2023-03-20T21:53:11.910Z,11.07
2023-03-20T21:59:33.126Z,11.07
2023-03-20T22:02:14.341Z,11.06
2023-03-20T22:12:16.607Z,11.03
2023-03-20T22:18:45.606Z,10.99
2023-03-20T22:21:50.951Z,10.89
2023-03-20T22:28:15.870Z,10.80
2023-03-20T22:34:46.556Z,10.75
2023-03-20T22:44:33.981Z,10.68
2023-03-20T22:46:51.367Z,10.66
2023-03-20T22:49:43.672Z,10.63
2023-03-20T22:52:48.279Z,10.61
2023-03-20T22:55:44.305Z,10.56
2023-03-20T22:58:36.485Z,10.51
2023-03-20T23:01:28.961Z,10.47
2023-03-20T23:04:21.342Z,10.42
2023-03-20T23:07:13.410Z,10.36
2023-03-20T23:10:06.373Z,10.30
2023-03-20T23:12:58.940Z,10.23
2023-03-20T23:15:51.559Z,10.18
2023-03-20T23:18:43.610Z,10.13
2023-03-20T23:21:35.214Z,10.09
2023-03-20T23:24:27.911Z,10.06
2023-03-20T23:27:20.627Z,10.04
2023-03-20T23:30:13.131Z,10.01
2023-03-20T23:33:06.509Z,9.99
2023-03-20T23:36:14.058Z,9.96
2023-03-20T23:39:13.800Z,9.94
2023-03-20T23:42:17.277Z,9.92
2023-03-20T23:45:20.042Z,9.91
2023-03-20T23:48:13.450Z,9.89
2023-03-20T23:51:06.264Z,9.86
2023-03-20T23:53:58.310Z,9.83
2023-03-20T23:56:50.666Z,9.81
2023-03-20T23:59:42.788Z,9.78
